sensor_id;sensor_type;location;lat;lon;timestamp;P1;durP1;ratioP1;P2;durP2;ratioP2
67503;SDS011;54351;49.108;1.502;2022-10-19T03:28:30;323.52;;;301.35;;
67503;SDS011;54351;49.108;1.502;2022-10-19T03:33:52;315.20;;;293.13;;
67503;SDS011;54351;49.108;1.502;2022-10-19T03:36:22;314.73;;;292.63;;
67503;SDS011;54351;49.108;1.502;2022-10-19T03:38:53;326.05;;;303.00;;
67503;SDS011;54351;49.108;1.502;2022-10-19T03:41:21;330.30;;;306.98;;
67503;SDS011;54351;49.108;1.502;2022-10-19T03:43:47;316.52;;;294.42;;
67503;SDS011;54351;49.108;1.502;2022-10-19T03:46:13;279.63;;;260.02;;
67503;SDS011;54351;49.108;1.502;2022-10-19T03:48:39;306.98;;;285.00;;
67503;SDS011;54351;49.108;1.502;2022-10-19T03:51:09;287.88;;;268.42;;
67503;SDS011;54351;49.108;1.502;2022-10-19T03:53:35;288.75;;;268.67;;
67503;SDS011;54351;49.108;1.502;2022-10-19T03:56:03;281.20;;;261.50;;
67503;SDS011;54351;49.108;1.502;2022-10-19T03:58:30;297.15;;;275.95;;
67503;SDS011;54351;49.108;1.502;2022-10-19T04:04:01;281.85;;;261.30;;
67503;SDS011;54351;49.108;1.502;2022-10-19T04:09:37;325.88;;;302.02;;
67503;SDS011;54351;49.108;1.502;2022-10-19T04:12:04;339.50;;;314.42;;
67503;SDS011;54351;49.108;1.502;2022-10-19T04:14:37;353.67;;;327.63;;
67503;SDS011;54351;49.108;1.502;2022-10-19T04:17:17;328.63;;;304.45;;
67503;SDS011;54351;49.108;1.502;2022-10-19T04:19:43;332.27;;;308.40;;
67503;SDS011;54351;49.108;1.502;2022-10-19T04:22:09;323.13;;;300.20;;
67503;SDS011;54351;49.108;1.502;2022-10-19T04:24:35;338.50;;;313.63;;
67503;SDS011;54351;49.108;1.502;2022-10-19T04:27:01;318.48;;;295.58;;
67503;SDS011;54351;49.108;1.502;2022-10-19T04:29:27;347.67;;;322.33;;
67503;SDS011;54351;49.108;1.502;2022-10-19T04:31:56;334.95;;;310.83;;
67503;SDS011;54351;49.108;1.502;2022-10-19T04:34:22;328.15;;;304.80;;
67503;SDS011;54351;49.108;1.502;2022-10-19T04:36:48;359.75;;;333.20;;
67503;SDS011;54351;49.108;1.502;2022-10-19T04:39:14;332.63;;;308.48;;
67503;SDS011;54351;49.108;1.502;2022-10-19T04:41:40;357.80;;;331.60;;
67503;SDS011;54351;49.108;1.502;2022-10-19T04:44:06;331.55;;;307.50;;
67503;SDS011;54351;49.108;1.502;2022-10-19T04:46:32;359.98;;;333.33;;
67503;SDS011;54351;49.108;1.502;2022-10-19T04:49:01;350.80;;;325.45;;
67503;SDS011;54351;49.108;1.502;2022-10-19T04:51:29;353.02;;;326.63;;
67503;SDS011;54351;49.108;1.502;2022-10-19T04:53:58;355.42;;;328.98;;
67503;SDS011;54351;49.108;1.502;2022-10-19T04:56:26;345.13;;;320.35;;
67503;SDS011;54351;49.108;1.502;2022-10-19T04:58:56;340.70;;;316.13;;
67503;SDS011;54351;49.108;1.502;2022-10-19T05:01:23;346.88;;;321.42;;
67503;SDS011;54351;49.108;1.502;2022-10-19T05:03:57;325.50;;;301.88;;
67503;SDS011;54351;49.108;1.502;2022-10-19T05:06:23;353.95;;;327.70;;
67503;SDS011;54351;49.108;1.502;2022-10-19T05:08:55;352.65;;;326.58;;
67503;SDS011;54351;49.108;1.502;2022-10-19T05:11:21;339.80;;;314.73;;
67503;SDS011;54351;49.108;1.502;2022-10-19T05:13:47;329.15;;;305.48;;
67503;SDS011;54351;49.108;1.502;2022-10-19T05:16:15;334.80;;;310.48;;
67503;SDS011;54351;49.108;1.502;2022-10-19T05:18:42;349.48;;;323.05;;
67503;SDS011;54351;49.108;1.502;2022-10-19T05:21:11;329.27;;;305.42;;
67503;SDS011;54351;49.108;1.502;2022-10-19T05:23:38;353.05;;;326.50;;
67503;SDS011;54351;49.108;1.502;2022-10-19T05:26:14;348.65;;;322.60;;
67503;SDS011;54351;49.108;1.502;2022-10-19T05:28:41;341.33;;;316.25;;
67503;SDS011;54351;49.108;1.502;2022-10-19T05:31:15;344.42;;;319.60;;
67503;SDS011;54351;49.108;1.502;2022-10-19T05:33:43;357.80;;;331.35;;
67503;SDS011;54351;49.108;1.502;2022-10-19T05:36:14;345.10;;;318.77;;
67503;SDS011;54351;49.108;1.502;2022-10-19T05:38:51;335.45;;;310.48;;
67503;SDS011;54351;49.108;1.502;2022-10-19T05:41:18;351.15;;;325.20;;
67503;SDS011;54351;49.108;1.502;2022-10-19T05:43:50;336.45;;;311.70;;
67503;SDS011;54351;49.108;1.502;2022-10-19T05:46:21;351.55;;;324.52;;
67503;SDS011;54351;49.108;1.502;2022-10-19T05:48:48;326.05;;;301.58;;
67503;SDS011;54351;49.108;1.502;2022-10-19T05:51:15;330.15;;;305.38;;
67503;SDS011;54351;49.108;1.502;2022-10-19T05:53:42;343.48;;;317.83;;
67503;SDS011;54351;49.108;1.502;2022-10-19T05:56:11;364.70;;;337.15;;
67503;SDS011;54351;49.108;1.502;2022-10-19T05:58:38;341.40;;;316.52;;
67503;SDS011;54351;49.108;1.502;2022-10-19T06:01:22;352.75;;;326.40;;
67503;SDS011;54351;49.108;1.502;2022-10-19T06:04:12;335.88;;;311.08;;
67503;SDS011;54351;49.108;1.502;2022-10-19T06:09:48;319.58;;;295.67;;
67503;SDS011;54351;49.108;1.502;2022-10-19T06:12:23;351.02;;;325.20;;
67503;SDS011;54351;49.108;1.502;2022-10-19T06:14:50;355.50;;;329.50;;
67503;SDS011;54351;49.108;1.502;2022-10-19T06:17:16;351.95;;;325.95;;
67503;SDS011;54351;49.108;1.502;2022-10-19T06:19:42;346.08;;;320.27;;
67503;SDS011;54351;49.108;1.502;2022-10-19T06:22:09;345.05;;;319.95;;
67503;SDS011;54351;49.108;1.502;2022-10-19T06:24:35;363.42;;;336.67;;
67503;SDS011;54351;49.108;1.502;2022-10-19T06:27:02;355.85;;;329.27;;
67503;SDS011;54351;49.108;1.502;2022-10-19T06:29:30;345.27;;;319.70;;
67503;SDS011;54351;49.108;1.502;2022-10-19T06:31:56;336.85;;;311.25;;
67503;SDS011;54351;49.108;1.502;2022-10-19T06:34:27;320.33;;;296.55;;
67503;SDS011;54351;49.108;1.502;2022-10-19T06:36:54;308.83;;;285.13;;
67503;SDS011;54351;49.108;1.502;2022-10-19T06:39:20;323.10;;;298.42;;
67503;SDS011;54351;49.108;1.502;2022-10-19T06:41:46;333.77;;;308.52;;
67503;SDS011;54351;49.108;1.502;2022-10-19T06:44:13;331.58;;;306.13;;
67503;SDS011;54351;49.108;1.502;2022-10-19T06:46:39;311.83;;;287.77;;
67503;SDS011;54351;49.108;1.502;2022-10-19T06:51:41;307.13;;;282.98;;
67503;SDS011;54351;49.108;1.502;2022-10-19T06:54:30;312.33;;;288.35;;
67503;SDS011;54351;49.108;1.502;2022-10-19T07:12:09;315.30;;;291.33;;
67503;SDS011;54351;49.108;1.502;2022-10-19T07:15:04;320.83;;;296.67;;
67503;SDS011;54351;49.108;1.502;2022-10-19T07:17:40;323.27;;;299.20;;
67503;SDS011;54351;49.108;1.502;2022-10-19T07:20:16;306.08;;;283.15;;
67503;SDS011;54351;49.108;1.502;2022-10-19T07:29:12;292.50;;;269.73;;
67503;SDS011;54351;49.108;1.502;2022-10-19T07:31:38;315.75;;;292.13;;
67503;SDS011;54351;49.108;1.502;2022-10-19T07:34:05;304.38;;;281.45;;
67503;SDS011;54351;49.108;1.502;2022-10-19T07:36:32;290.40;;;269.02;;
67503;SDS011;54351;49.108;1.502;2022-10-19T07:39:01;292.55;;;269.70;;
67503;SDS011;54351;49.108;1.502;2022-10-19T07:41:29;300.57;;;278.20;;
67503;SDS011;54351;49.108;1.502;2022-10-19T07:43:55;309.55;;;286.75;;
67503;SDS011;54351;49.108;1.502;2022-10-19T07:46:25;296.77;;;275.10;;
67503;SDS011;54351;49.108;1.502;2022-10-19T07:48:53;304.63;;;281.73;;
67503;SDS011;54351;49.108;1.502;2022-10-19T07:51:19;300.38;;;278.20;;
67503;SDS011;54351;49.108;1.502;2022-10-19T07:53:45;315.48;;;291.83;;
67503;SDS011;54351;49.108;1.502;2022-10-19T07:56:13;317.65;;;294.75;;
67503;SDS011;54351;49.108;1.502;2022-10-19T07:58:39;304.48;;;282.70;;
67503;SDS011;54351;49.108;1.502;2022-10-19T08:01:07;352.45;;;326.45;;
67503;SDS011;54351;49.108;1.502;2022-10-19T08:03:33;358.05;;;332.05;;
67503;SDS011;54351;49.108;1.502;2022-10-19T08:06:00;365.60;;;339.65;;
67503;SDS011;54351;49.108;1.502;2022-10-19T08:08:26;392.85;;;364.23;;
67503;SDS011;54351;49.108;1.502;2022-10-19T08:10:52;411.40;;;380.70;;
67503;SDS011;54351;49.108;1.502;2022-10-19T08:13:18;427.92;;;396.45;;
67503;SDS011;54351;49.108;1.502;2022-10-19T08:15:44;463.02;;;428.75;;
67503;SDS011;54351;49.108;1.502;2022-10-19T08:18:10;466.27;;;431.67;;
67503;SDS011;54351;49.108;1.502;2022-10-19T08:20:39;417.17;;;386.75;;
67503;SDS011;54351;49.108;1.502;2022-10-19T08:23:05;517.22;;;477.75;;
67503;SDS011;54351;49.108;1.502;2022-10-19T08:25:31;505.45;;;467.25;;
67503;SDS011;54351;49.108;1.502;2022-10-19T08:27:58;494.63;;;457.73;;
67503;SDS011;54351;49.108;1.502;2022-10-19T08:30:24;484.20;;;447.80;;
67503;SDS011;54351;49.108;1.502;2022-10-19T08:32:50;504.35;;;466.70;;
67503;SDS011;54351;49.108;1.502;2022-10-19T08:35:16;520.72;;;481.75;;
67503;SDS011;54351;49.108;1.502;2022-10-19T08:37:42;514.80;;;476.15;;
67503;SDS011;54351;49.108;1.502;2022-10-19T08:40:15;518.00;;;478.80;;
67503;SDS011;54351;49.108;1.502;2022-10-19T08:42:45;499.20;;;461.85;;
67503;SDS011;54351;49.108;1.502;2022-10-19T08:48:24;469.38;;;434.80;;
67503;SDS011;54351;49.108;1.502;2022-10-19T08:50:52;503.45;;;465.80;;
67503;SDS011;54351;49.108;1.502;2022-10-19T08:53:28;522.35;;;483.58;;
67503;SDS011;54351;49.108;1.502;2022-10-19T08:56:00;464.40;;;430.08;;
67503;SDS011;54351;49.108;1.502;2022-10-19T09:01:02;500.90;;;463.02;;
67503;SDS011;54351;49.108;1.502;2022-10-19T09:03:33;502.10;;;464.25;;
67503;SDS011;54351;49.108;1.502;2022-10-19T09:08:47;471.15;;;436.25;;
67503;SDS011;54351;49.108;1.502;2022-10-19T09:11:14;469.38;;;434.48;;
67503;SDS011;54351;49.108;1.502;2022-10-19T09:13:43;492.80;;;456.25;;
67503;SDS011;54351;49.108;1.502;2022-10-19T09:16:16;491.85;;;455.30;;
67503;SDS011;54351;49.108;1.502;2022-10-19T09:18:43;492.52;;;456.20;;
67503;SDS011;54351;49.108;1.502;2022-10-19T09:23:42;475.73;;;440.42;;
67503;SDS011;54351;49.108;1.502;2022-10-19T09:26:16;462.48;;;428.38;;
67503;SDS011;54351;49.108;1.502;2022-10-19T09:31:14;431.70;;;401.02;;
67503;SDS011;54351;49.108;1.502;2022-10-19T09:33:40;436.88;;;406.17;;
67503;SDS011;54351;49.108;1.502;2022-10-19T09:36:06;402.90;;;375.33;;
67503;SDS011;54351;49.108;1.502;2022-10-19T09:38:33;383.08;;;356.63;;
67503;SDS011;54351;49.108;1.502;2022-10-19T09:41:16;367.73;;;343.85;;
67503;SDS011;54351;49.108;1.502;2022-10-19T09:43:44;347.40;;;325.70;;
67503;SDS011;54351;49.108;1.502;2022-10-19T09:46:16;379.58;;;353.90;;
67503;SDS011;54351;49.108;1.502;2022-10-19T09:48:48;396.17;;;369.38;;
67503;SDS011;54351;49.108;1.502;2022-10-19T09:51:16;245.02;;;230.02;;
67503;SDS011;54351;49.108;1.502;2022-10-19T09:53:45;328.50;;;308.40;;
67503;SDS011;54351;49.108;1.502;2022-10-19T09:56:19;246.57;;;230.77;;
67503;SDS011;54351;49.108;1.502;2022-10-19T09:58:49;246.35;;;231.60;;
67503;SDS011;54351;49.108;1.502;2022-10-19T10:01:37;323.58;;;303.35;;
67503;SDS011;54351;49.108;1.502;2022-10-19T10:04:15;293.13;;;275.00;;
67503;SDS011;54351;49.108;1.502;2022-10-19T10:06:43;247.98;;;232.98;;
67503;SDS011;54351;49.108;1.502;2022-10-19T10:09:16;300.50;;;281.58;;
67503;SDS011;54351;49.108;1.502;2022-10-19T10:11:42;203.43;;;190.93;;
67503;SDS011;54351;49.108;1.502;2022-10-19T10:14:17;218.05;;;204.38;;
67503;SDS011;54351;49.108;1.502;2022-10-19T10:16:44;289.65;;;272.38;;
67503;SDS011;54351;49.108;1.502;2022-10-19T10:19:11;214.07;;;201.52;;
67503;SDS011;54351;49.108;1.502;2022-10-19T10:21:48;271.95;;;255.32;;
67503;SDS011;54351;49.108;1.502;2022-10-19T10:26:53;310.80;;;289.73;;
67503;SDS011;54351;49.108;1.502;2022-10-19T10:34:25;518.13;;;479.77;;
67503;SDS011;54351;49.108;1.502;2022-10-19T10:36:55;490.13;;;454.38;;
67503;SDS011;54351;49.108;1.502;2022-10-19T10:39:21;545.10;;;504.15;;
67503;SDS011;54351;49.108;1.502;2022-10-19T10:41:48;543.70;;;500.48;;
67503;SDS011;54351;49.108;1.502;2022-10-19T10:44:22;570.40;;;527.25;;
67503;SDS011;54351;49.108;1.502;2022-10-19T10:49:20;529.13;;;488.58;;
67503;SDS011;54351;49.108;1.502;2022-10-19T10:54:15;488.13;;;453.60;;
67503;SDS011;54351;49.108;1.502;2022-10-19T10:56:43;527.78;;;488.63;;
67503;SDS011;54351;49.108;1.502;2022-10-19T10:59:21;458.85;;;426.60;;
67503;SDS011;54351;49.108;1.502;2022-10-19T11:01:57;528.40;;;490.58;;
67503;SDS011;54351;49.108;1.502;2022-10-19T11:04:27;553.72;;;513.10;;
67503;SDS011;54351;49.108;1.502;2022-10-19T11:06:56;508.77;;;472.15;;
67503;SDS011;54351;49.108;1.502;2022-10-19T11:11:53;586.45;;;541.72;;
67503;SDS011;54351;49.108;1.502;2022-10-19T11:17:02;555.67;;;514.50;;
67503;SDS011;54351;49.108;1.502;2022-10-19T11:19:50;499.42;;;463.95;;
67503;SDS011;54351;49.108;1.502;2022-10-19T11:22:18;556.15;;;515.58;;
67503;SDS011;54351;49.108;1.502;2022-10-19T11:27:37;551.58;;;509.52;;
67503;SDS011;54351;49.108;1.502;2022-10-19T11:30:10;565.92;;;523.80;;
67503;SDS011;54351;49.108;1.502;2022-10-19T11:40:18;557.13;;;515.88;;
67503;SDS011;54351;49.108;1.502;2022-10-19T11:48:21;568.85;;;524.97;;
67503;SDS011;54351;49.108;1.502;2022-10-19T11:50:52;567.40;;;524.17;;
67503;SDS011;54351;49.108;1.502;2022-10-19T12:09:32;611.65;;;564.03;;
67503;SDS011;54351;49.108;1.502;2022-10-19T12:14:54;476.98;;;441.20;;
67503;SDS011;54351;49.108;1.502;2022-10-19T12:17:26;592.22;;;544.65;;
67503;SDS011;54351;49.108;1.502;2022-10-19T12:19:55;513.55;;;472.95;;
67503;SDS011;54351;49.108;1.502;2022-10-19T12:22:24;561.92;;;517.03;;
67503;SDS011;54351;49.108;1.502;2022-10-19T12:24:51;592.40;;;544.97;;
67503;SDS011;54351;49.108;1.502;2022-10-19T12:27:22;470.70;;;433.65;;
67503;SDS011;54351;49.108;1.502;2022-10-19T12:29:49;554.70;;;510.77;;
67503;SDS011;54351;49.108;1.502;2022-10-19T12:32:16;367.63;;;340.35;;
67503;SDS011;54351;49.108;1.502;2022-10-19T12:34:52;169.20;;;157.18;;
67503;SDS011;54351;49.108;1.502;2022-10-19T12:40:02;310.00;;;286.17;;
67503;SDS011;54351;49.108;1.502;2022-10-19T12:47:22;83.15;;;77.25;;
67503;SDS011;54351;49.108;1.502;2022-10-19T12:49:49;88.82;;;81.50;;
67503;SDS011;54351;49.108;1.502;2022-10-19T12:53:01;219.23;;;203.35;;
67503;SDS011;54351;49.108;1.502;2022-10-19T12:55:17;116.10;;;106.35;;
67503;SDS011;54351;49.108;1.502;2022-10-19T12:57:54;180.20;;;167.27;;
67503;SDS011;54351;49.108;1.502;2022-10-19T13:00:25;160.07;;;148.75;;
67503;SDS011;54351;49.108;1.502;2022-10-19T13:03:06;177.52;;;164.77;;
67503;SDS011;54351;49.108;1.502;2022-10-19T13:05:39;123.00;;;113.70;;
67503;SDS011;54351;49.108;1.502;2022-10-19T13:08:05;355.42;;;329.38;;
67503;SDS011;54351;49.108;1.502;2022-10-19T13:10:32;140.07;;;129.95;;
67503;SDS011;54351;49.108;1.502;2022-10-19T13:12:59;104.82;;;96.80;;
67503;SDS011;54351;49.108;1.502;2022-10-19T13:17:57;88.28;;;80.72;;
67503;SDS011;54351;49.108;1.502;2022-10-19T13:28:34;143.80;;;133.57;;
67503;SDS011;54351;49.108;1.502;2022-10-19T13:36:10;95.57;;;87.50;;
67503;SDS011;54351;49.108;1.502;2022-10-19T13:56:56;80.60;;;73.75;;
67503;SDS011;54351;49.108;1.502;2022-10-19T14:04:42;110.03;;;99.55;;
67503;SDS011;54351;49.108;1.502;2022-10-19T14:07:17;128.48;;;117.38;;
67503;SDS011;54351;49.108;1.502;2022-10-19T14:12:25;299.85;;;277.55;;
67503;SDS011;54351;49.108;1.502;2022-10-19T14:14:52;166.30;;;152.85;;
67503;SDS011;54351;49.108;1.502;2022-10-19T14:17:20;180.20;;;164.30;;
67503;SDS011;54351;49.108;1.502;2022-10-19T14:19:52;270.70;;;251.43;;
67503;SDS011;54351;49.108;1.502;2022-10-19T14:24:48;338.90;;;314.73;;
67503;SDS011;54351;49.108;1.502;2022-10-19T14:27:19;439.23;;;407.35;;
67503;SDS011;54351;49.108;1.502;2022-10-19T14:29:50;539.47;;;500.73;;
67503;SDS011;54351;49.108;1.502;2022-10-19T14:32:17;335.75;;;311.88;;
67503;SDS011;54351;49.108;1.502;2022-10-19T14:34:46;230.18;;;212.20;;
67503;SDS011;54351;49.108;1.502;2022-10-19T14:37:15;311.95;;;289.55;;
67503;SDS011;54351;49.108;1.502;2022-10-19T14:39:42;345.13;;;321.05;;
67503;SDS011;54351;49.108;1.502;2022-10-19T14:42:22;269.40;;;250.00;;
67503;SDS011;54351;49.108;1.502;2022-10-19T14:44:48;307.95;;;286.27;;
67503;SDS011;54351;49.108;1.502;2022-10-19T14:47:18;273.65;;;254.23;;
67503;SDS011;54351;49.108;1.502;2022-10-19T14:49:46;162.48;;;149.85;;
67503;SDS011;54351;49.108;1.502;2022-10-19T14:52:14;208.57;;;193.35;;
67503;SDS011;54351;49.108;1.502;2022-10-19T14:54:43;189.20;;;175.27;;
67503;SDS011;54351;49.108;1.502;2022-10-19T14:57:14;329.02;;;306.60;;
67503;SDS011;54351;49.108;1.502;2022-10-19T14:59:43;277.38;;;256.52;;
67503;SDS011;54351;49.108;1.502;2022-10-19T15:02:14;308.23;;;283.67;;
67503;SDS011;54351;49.108;1.502;2022-10-19T15:04:41;205.13;;;189.63;;
67503;SDS011;54351;49.108;1.502;2022-10-19T15:07:15;153.32;;;140.80;;
67503;SDS011;54351;49.108;1.502;2022-10-19T15:09:46;250.52;;;232.50;;
67503;SDS011;54351;49.108;1.502;2022-10-19T15:12:14;308.17;;;285.85;;
67503;SDS011;54351;49.108;1.502;2022-10-19T15:14:41;259.20;;;238.68;;
67503;SDS011;54351;49.108;1.502;2022-10-19T15:20:15;318.85;;;293.50;;
67503;SDS011;54351;49.108;1.502;2022-10-19T15:22:46;274.95;;;251.38;;
67503;SDS011;54351;49.108;1.502;2022-10-19T15:27:40;373.73;;;344.80;;
67503;SDS011;54351;49.108;1.502;2022-10-19T15:33:06;278.10;;;254.82;;
67503;SDS011;54351;49.108;1.502;2022-10-19T15:35:33;310.70;;;286.75;;
67503;SDS011;54351;49.108;1.502;2022-10-19T15:38:01;244.93;;;224.85;;
67503;SDS011;54351;49.108;1.502;2022-10-19T15:42:56;135.63;;;123.80;;
67503;SDS011;54351;49.108;1.502;2022-10-19T15:45:27;125.20;;;114.13;;
67503;SDS011;54351;49.108;1.502;2022-10-19T15:50:30;128.32;;;118.00;;
67503;SDS011;54351;49.108;1.502;2022-10-19T15:52:57;143.68;;;132.82;;
67503;SDS011;54351;49.108;1.502;2022-10-19T15:55:24;118.35;;;109.22;;
67503;SDS011;54351;49.108;1.502;2022-10-19T15:57:56;135.93;;;125.28;;
67503;SDS011;54351;49.108;1.502;2022-10-19T16:00:28;193.57;;;178.25;;
67503;SDS011;54351;49.108;1.502;2022-10-19T16:06:42;370.05;;;341.92;;
67503;SDS011;54351;49.108;1.502;2022-10-19T16:12:21;333.88;;;309.65;;
67503;SDS011;54351;49.108;1.502;2022-10-19T16:14:48;385.52;;;356.90;;
67503;SDS011;54351;49.108;1.502;2022-10-19T16:17:14;375.80;;;346.75;;
67503;SDS011;54351;49.108;1.502;2022-10-19T16:19:41;419.73;;;386.33;;
67503;SDS011;54351;49.108;1.502;2022-10-19T16:22:07;465.48;;;429.33;;
67503;SDS011;54351;49.108;1.502;2022-10-19T16:24:33;501.65;;;462.48;;
67503;SDS011;54351;49.108;1.502;2022-10-19T16:27:00;514.85;;;474.58;;
67503;SDS011;54351;49.108;1.502;2022-10-19T16:29:26;569.15;;;524.28;;
67503;SDS011;54351;49.108;1.502;2022-10-19T16:31:52;566.60;;;522.03;;
67503;SDS011;54351;49.108;1.502;2022-10-19T16:34:18;519.42;;;479.25;;
67503;SDS011;54351;49.108;1.502;2022-10-19T16:36:45;553.03;;;509.88;;
67503;SDS011;54351;49.108;1.502;2022-10-19T16:39:12;573.33;;;528.53;;
67503;SDS011;54351;49.108;1.502;2022-10-19T16:41:41;578.97;;;534.05;;
67503;SDS011;54351;49.108;1.502;2022-10-19T16:44:09;586.85;;;541.60;;
67503;SDS011;54351;49.108;1.502;2022-10-19T16:46:35;622.10;;;574.15;;
67503;SDS011;54351;49.108;1.502;2022-10-19T16:49:03;547.30;;;504.58;;
67503;SDS011;54351;49.108;1.502;2022-10-19T16:51:33;619.72;;;572.30;;
67503;SDS011;54351;49.108;1.502;2022-10-19T16:54:03;598.85;;;553.80;;
67503;SDS011;54351;49.108;1.502;2022-10-19T16:56:34;588.10;;;545.17;;
67503;SDS011;54351;49.108;1.502;2022-10-19T16:59:01;575.75;;;534.10;;
67503;SDS011;54351;49.108;1.502;2022-10-19T17:01:28;553.72;;;514.30;;
67503;SDS011;54351;49.108;1.502;2022-10-19T17:03:59;547.03;;;508.25;;
67503;SDS011;54351;49.108;1.502;2022-10-19T17:06:29;518.80;;;483.67;;
67503;SDS011;54351;49.108;1.502;2022-10-19T17:08:59;547.45;;;510.05;;
67503;SDS011;54351;49.108;1.502;2022-10-19T17:11:27;496.02;;;461.38;;
67503;SDS011;54351;49.108;1.502;2022-10-19T17:13:55;504.27;;;470.80;;
67503;SDS011;54351;49.108;1.502;2022-10-19T17:16:22;467.63;;;437.15;;
67503;SDS011;54351;49.108;1.502;2022-10-19T17:18:52;476.30;;;444.88;;
67503;SDS011;54351;49.108;1.502;2022-10-19T17:21:22;467.83;;;436.60;;
67503;SDS011;54351;49.108;1.502;2022-10-19T17:23:56;464.73;;;433.38;;
67503;SDS011;54351;49.108;1.502;2022-10-19T17:26:26;430.45;;;401.85;;
67503;SDS011;54351;49.108;1.502;2022-10-19T17:28:53;442.45;;;413.08;;
67503;SDS011;54351;49.108;1.502;2022-10-19T17:31:20;441.67;;;412.48;;
67503;SDS011;54351;49.108;1.502;2022-10-19T17:33:46;438.38;;;408.50;;
67503;SDS011;54351;49.108;1.502;2022-10-19T17:36:16;441.05;;;410.63;;
67503;SDS011;54351;49.108;1.502;2022-10-19T17:38:43;420.05;;;390.70;;
67503;SDS011;54351;49.108;1.502;2022-10-19T17:41:16;421.25;;;390.98;;
67503;SDS011;54351;49.108;1.502;2022-10-19T17:43:45;392.10;;;362.70;;
67503;SDS011;54351;49.108;1.502;2022-10-19T17:46:24;366.67;;;339.60;;
67503;SDS011;54351;49.108;1.502;2022-10-19T17:48:51;403.38;;;372.58;;
67503;SDS011;54351;49.108;1.502;2022-10-19T17:51:18;419.45;;;387.88;;
67503;SDS011;54351;49.108;1.502;2022-10-19T17:53:45;418.98;;;386.83;;
67503;SDS011;54351;49.108;1.502;2022-10-19T17:56:12;411.52;;;379.23;;
67503;SDS011;54351;49.108;1.502;2022-10-19T17:58:39;418.88;;;386.48;;
67503;SDS011;54351;49.108;1.502;2022-10-19T18:07:53;345.27;;;317.63;;
67503;SDS011;54351;49.108;1.502;2022-10-19T18:22:13;429.20;;;395.25;;
67503;SDS011;54351;49.108;1.502;2022-10-19T18:25:01;407.85;;;375.88;;
67503;SDS011;54351;49.108;1.502;2022-10-19T18:33:57;414.13;;;381.95;;
67503;SDS011;54351;49.108;1.502;2022-10-19T18:42:42;375.20;;;347.45;;
67503;SDS011;54351;49.108;1.502;2022-10-19T18:45:18;378.60;;;350.40;;
67503;SDS011;54351;49.108;1.502;2022-10-19T18:48:07;406.50;;;375.23;;
67503;SDS011;54351;49.108;1.502;2022-10-19T18:53:12;405.65;;;374.52;;
67503;SDS011;54351;49.108;1.502;2022-10-19T18:58:49;397.27;;;365.75;;
67503;SDS011;54351;49.108;1.502;2022-10-19T19:01:18;373.25;;;344.98;;
67503;SDS011;54351;49.108;1.502;2022-10-19T19:04:07;396.55;;;365.40;;
67503;SDS011;54351;49.108;1.502;2022-10-19T19:09:32;355.90;;;328.77;;
67503;SDS011;54351;49.108;1.502;2022-10-19T19:12:12;365.30;;;336.30;;
67503;SDS011;54351;49.108;1.502;2022-10-19T19:14:43;310.48;;;287.33;;
67503;SDS011;54351;49.108;1.502;2022-10-19T19:17:26;282.17;;;260.13;;
67503;SDS011;54351;49.108;1.502;2022-10-19T19:19:57;290.27;;;267.20;;
67503;SDS011;54351;49.108;1.502;2022-10-19T19:22:27;265.17;;;244.38;;
67503;SDS011;54351;49.108;1.502;2022-10-19T19:24:56;283.17;;;261.17;;
67503;SDS011;54351;49.108;1.502;2022-10-19T19:48:56;219.52;;;202.00;;
67503;SDS011;54351;49.108;1.502;2022-10-19T19:55:47;193.50;;;178.05;;
67503;SDS011;54351;49.108;1.502;2022-10-19T19:57:55;203.30;;;187.52;;
67503;SDS011;54351;49.108;1.502;2022-10-19T20:06:41;183.48;;;168.40;;
67503;SDS011;54351;49.108;1.502;2022-10-19T20:09:09;191.27;;;177.05;;
67503;SDS011;54351;49.108;1.502;2022-10-19T20:11:36;157.48;;;146.13;;
67503;SDS011;54351;49.108;1.502;2022-10-19T20:14:14;178.38;;;164.70;;
67503;SDS011;54351;49.108;1.502;2022-10-19T20:26:01;227.98;;;211.18;;
67503;SDS011;54351;49.108;1.502;2022-10-19T20:28:57;216.55;;;201.45;;
67503;SDS011;54351;49.108;1.502;2022-10-19T20:31:28;232.10;;;215.13;;
67503;SDS011;54351;49.108;1.502;2022-10-19T20:33:55;208.38;;;191.88;;
67503;SDS011;54351;49.108;1.502;2022-10-19T20:36:22;181.85;;;169.07;;
67503;SDS011;54351;49.108;1.502;2022-10-19T20:38:49;179.50;;;166.80;;
67503;SDS011;54351;49.108;1.502;2022-10-19T20:41:16;192.50;;;179.18;;
67503;SDS011;54351;49.108;1.502;2022-10-19T20:43:42;189.40;;;175.57;;
67503;SDS011;54351;49.108;1.502;2022-10-19T20:46:18;174.82;;;162.50;;
67503;SDS011;54351;49.108;1.502;2022-10-19T20:48:46;164.45;;;153.48;;
67503;SDS011;54351;49.108;1.502;2022-10-19T20:51:13;169.15;;;157.40;;
67503;SDS011;54351;49.108;1.502;2022-10-19T20:53:40;157.10;;;146.88;;
67503;SDS011;54351;49.108;1.502;2022-10-19T20:56:07;174.50;;;162.18;;
67503;SDS011;54351;49.108;1.502;2022-10-19T20:58:33;178.20;;;166.13;;
67503;SDS011;54351;49.108;1.502;2022-10-19T21:01:11;174.25;;;161.57;;
67503;SDS011;54351;49.108;1.502;2022-10-19T21:03:37;186.82;;;174.35;;
67503;SDS011;54351;49.108;1.502;2022-10-19T21:06:04;155.43;;;144.77;;
67503;SDS011;54351;49.108;1.502;2022-10-19T21:08:32;165.45;;;154.23;;
67503;SDS011;54351;49.108;1.502;2022-10-19T21:10:58;165.23;;;154.70;;
67503;SDS011;54351;49.108;1.502;2022-10-19T21:13:24;181.05;;;168.18;;
67503;SDS011;54351;49.108;1.502;2022-10-19T21:15:50;170.90;;;159.57;;
67503;SDS011;54351;49.108;1.502;2022-10-19T21:18:16;187.82;;;175.43;;
67503;SDS011;54351;49.108;1.502;2022-10-19T21:20:42;175.63;;;163.43;;
67503;SDS011;54351;49.108;1.502;2022-10-19T21:23:08;195.35;;;182.48;;
67503;SDS011;54351;49.108;1.502;2022-10-19T21:25:34;174.93;;;163.38;;
67503;SDS011;54351;49.108;1.502;2022-10-19T21:28:00;192.63;;;179.10;;
67503;SDS011;54351;49.108;1.502;2022-10-19T21:30:26;184.15;;;171.77;;
67503;SDS011;54351;49.108;1.502;2022-10-19T21:32:53;219.00;;;204.23;;
67503;SDS011;54351;49.108;1.502;2022-10-19T21:35:19;192.93;;;179.70;;
67503;SDS011;54351;49.108;1.502;2022-10-19T21:37:45;218.70;;;203.82;;
67503;SDS011;54351;49.108;1.502;2022-10-19T21:40:11;221.00;;;206.23;;
67503;SDS011;54351;49.108;1.502;2022-10-19T21:42:37;225.25;;;209.30;;
67503;SDS011;54351;49.108;1.502;2022-10-19T21:45:03;204.55;;;189.98;;
67503;SDS011;54351;49.108;1.502;2022-10-19T21:47:29;218.70;;;204.40;;
67503;SDS011;54351;49.108;1.502;2022-10-19T21:49:55;174.85;;;162.63;;
67503;SDS011;54351;49.108;1.502;2022-10-19T21:52:21;206.85;;;192.25;;